Time;durP1;ratioP1;P1;durP2;ratioP2;P2;SDS_P1;SDS_P2;PMS_P1;PMS_P2;Temp;Humidity;BMP_temperature;BMP_pressure;BME280_temperature;BME280_humidity;BME280_pressure;Samples;Min_cycle;Max_cycle;Signal;HPM_P1;HPM_P2
2022/02/15 00:01:32;;;;;;;0.80;0.80;;;19.90;38.30;;;;;;5095211;28;20062;-74
2022/02/15 00:03:58;;;;;;;0.85;0.80;;;19.90;38.30;;;;;;5093862;28;20044;-74
2022/02/15 00:06:24;;;;;;;0.80;0.80;;;19.90;38.30;;;;;;5093155;28;20052;-74
2022/02/15 00:08:49;;;;;;;0.80;0.80;;;19.90;38.40;;;;;;5112993;28;20067;-74
2022/02/15 00:11:15;;;;;;;1.05;0.95;;;19.90;38.30;;;;;;5112960;28;20054;-74
2022/02/15 00:13:40;;;;;;;1.30;1.00;;;19.90;38.30;;;;;;5113502;28;20056;-74
2022/02/15 00:16:06;;;;;;;1.05;0.98;;;19.90;38.30;;;;;;5112776;28;20052;-75
2022/02/15 00:18:32;;;;;;;0.90;0.90;;;19.90;38.30;;;;;;5112859;28;20087;-74
2022/02/15 00:20:57;;;;;;;1.02;0.90;;;19.90;38.30;;;;;;5112736;28;20058;-74
2022/02/15 00:23:24;;;;;;;1.15;0.82;;;19.90;38.30;;;;;;5094339;28;20079;-74
2022/02/15 00:25:50;;;;;;;1.10;1.00;;;19.90;38.30;;;;;;5113113;28;20044;-74
2022/02/15 00:28:15;;;;;;;0.98;0.90;;;19.90;38.30;;;;;;5094323;28;20053;-74
2022/02/15 00:30:41;;;;;;;0.90;0.90;;;20.00;38.30;;;;;;5093224;28;20479;-74
2022/02/15 00:33:06;;;;;;;0.80;0.80;;;19.90;38.30;;;;;;5112549;28;20082;-74
2022/02/15 00:35:32;;;;;;;1.20;0.90;;;19.90;38.30;;;;;;5093569;28;20079;-75
2022/02/15 00:37:58;;;;;;;0.95;0.85;;;19.90;38.30;;;;;;5112507;28;20059;-74
2022/02/15 00:40:24;;;;;;;0.93;0.80;;;19.90;38.30;;;;;;5112434;28;20064;-74
2022/02/15 00:42:49;;;;;;;0.93;0.88;;;19.90;38.30;;;;;;5111098;28;20143;-74
2022/02/15 00:45:16;;;;;;;1.00;0.90;;;19.90;38.30;;;;;;5094267;28;20056;-74
2022/02/15 00:47:41;;;;;;;0.75;0.75;;;19.90;38.30;;;;;;5112435;28;20052;-74
2022/02/15 00:50:08;;;;;;;1.35;1.05;;;19.90;38.30;;;;;;5110128;28;20101;-74
2022/02/15 00:52:33;;;;;;;1.40;0.90;;;19.90;38.30;;;;;;5094253;28;20058;-74
2022/02/15 00:54:59;;;;;;;1.65;0.90;;;19.90;38.30;;;;;;5112391;28;20044;-74
2022/02/15 00:57:25;;;;;;;0.80;0.80;;;19.90;38.30;;;;;;5112436;28;20051;-74
2022/02/15 00:59:51;;;;;;;1.17;1.00;;;19.90;38.30;;;;;;5112368;28;20081;-74
2022/02/15 01:02:17;;;;;;;0.80;0.80;;;19.90;38.30;;;;;;5092256;28;20048;-74
2022/02/15 01:04:43;;;;;;;0.93;0.90;;;19.90;38.30;;;;;;5096620;28;20043;-74
2022/02/15 01:07:09;;;;;;;0.80;0.80;;;19.90;38.20;;;;;;5097422;28;20377;-74
2022/02/15 01:09:34;;;;;;;1.58;0.70;;;19.90;38.30;;;;;;5116111;28;20108;-74
2022/02/15 01:12:00;;;;;;;1.70;0.98;;;19.90;38.30;;;;;;5097208;28;20046;-74
2022/02/15 01:14:25;;;;;;;0.80;0.80;;;19.90;38.30;;;;;;5096594;28;20083;-74
2022/02/15 01:16:51;;;;;;;1.40;1.02;;;19.90;38.30;;;;;;5097329;28;20047;-75
2022/02/15 01:19:17;;;;;;;0.95;0.70;;;19.90;38.30;;;;;;5097364;28;20056;-74
2022/02/15 01:21:42;;;;;;;0.80;0.80;;;19.90;38.30;;;;;;5114147;28;20158;-74
2022/02/15 01:24:08;;;;;;;0.65;0.60;;;19.90;38.30;;;;;;5115987;28;20048;-74
2022/02/15 01:26:34;;;;;;;1.05;0.88;;;19.90;38.30;;;;;;5115395;28;20411;-74
2022/02/15 01:29:00;;;;;;;0.98;0.90;;;19.90;38.30;;;;;;5097064;28;20044;-74
2022/02/15 01:31:26;;;;;;;0.80;0.70;;;19.90;38.30;;;;;;5114265;28;20388;-74
2022/02/15 01:33:52;;;;;;;0.80;0.60;;;19.90;38.30;;;;;;5115409;28;20039;-74
2022/02/15 01:36:18;;;;;;;1.23;0.85;;;19.90;38.30;;;;;;5080084;28;20055;-75
2022/02/15 01:38:43;;;;;;;0.85;0.85;;;19.90;38.30;;;;;;5096159;28;20056;-74
2022/02/15 01:41:09;;;;;;;0.60;0.60;;;19.90;38.30;;;;;;5097511;28;20113;-74
2022/02/15 01:43:40;;;;;;;0.82;0.82;;;19.90;38.30;;;;;;5096890;28;20456;-74
2022/02/15 01:46:07;;;;;;;0.80;0.80;;;19.90;38.30;;;;;;5096942;28;20134;-74
2022/02/15 01:48:35;;;;;;;0.60;0.60;;;19.90;38.30;;;;;;5096538;28;20058;-74
2022/02/15 01:51:02;;;;;;;0.70;0.70;;;19.90;38.30;;;;;;5115102;28;20052;-74
2022/02/15 01:53:28;;;;;;;0.70;0.70;;;19.90;38.30;;;;;;5096725;28;20048;-74
2022/02/15 01:55:54;;;;;;;0.85;0.85;;;19.90;38.30;;;;;;5113682;28;20047;-74
2022/02/15 01:58:22;;;;;;;0.80;0.80;;;19.80;38.30;;;;;;5096442;28;20514;-74
2022/02/15 02:00:49;;;;;;;0.60;0.60;;;19.90;38.30;;;;;;5114968;28;20105;-74
2022/02/15 02:03:28;;;;;;;0.82;0.80;;;19.80;38.30;;;;;;5096546;28;20430;-74
2022/02/15 02:05:55;;;;;;;0.80;0.80;;;19.90;38.30;;;;;;5096559;28;20108;-74
2022/02/15 02:08:28;;;;;;;0.80;0.80;;;19.80;38.30;;;;;;5096541;28;20043;-74
2022/02/15 02:10:56;;;;;;;1.05;0.70;;;19.80;38.30;;;;;;5113472;28;20082;-74
2022/02/15 02:13:48;;;;;;;0.85;0.80;;;19.80;38.30;;;;;;5110643;28;20414;-74
2022/02/15 02:16:13;;;;;;;1.25;0.93;;;19.90;38.40;;;;;;5095235;28;20113;-74
2022/02/15 02:19:04;;;;;;;0.70;0.70;;;19.80;38.30;;;;;;5096771;28;20050;-74
2022/02/15 02:21:38;;;;;;;1.02;0.80;;;19.80;38.30;;;;;;5095327;28;20050;-74
2022/02/15 02:24:06;;;;;;;0.77;0.70;;;19.80;38.30;;;;;;5113573;28;20051;-74
2022/02/15 02:26:32;;;;;;;1.25;0.80;;;19.80;38.30;;;;;;5113024;28;20090;-74
2022/02/15 02:28:58;;;;;;;0.68;0.68;;;19.80;38.30;;;;;;5096787;28;20090;-74
2022/02/15 02:31:28;;;;;;;0.60;0.60;;;19.90;38.30;;;;;;5096094;28;20055;-74
2022/02/15 02:34:01;;;;;;;0.65;0.65;;;19.80;38.30;;;;;;5096124;28;20047;-74
2022/02/15 02:36:27;;;;;;;1.02;0.77;;;19.80;38.30;;;;;;5096127;28;20054;-74
2022/02/15 02:38:53;;;;;;;0.60;0.60;;;19.80;38.30;;;;;;5095967;28;20138;-74
2022/02/15 02:41:19;;;;;;;1.00;0.90;;;19.80;38.30;;;;;;5095444;28;20052;-74
2022/02/15 02:43:45;;;;;;;0.98;0.80;;;19.80;38.30;;;;;;5095861;28;20059;-74
2022/02/15 02:46:13;;;;;;;0.50;0.50;;;19.80;38.30;;;;;;5096286;28;20085;-74
2022/02/15 02:48:43;;;;;;;0.70;0.68;;;19.80;38.30;;;;;;5114137;28;20051;-74
2022/02/15 02:51:08;;;;;;;0.60;0.60;;;19.80;38.30;;;;;;5114092;28;20645;-74
2022/02/15 02:53:34;;;;;;;1.23;0.90;;;19.80;38.30;;;;;;5113912;28;20055;-74
2022/02/15 02:56:00;;;;;;;1.70;0.68;;;19.90;38.30;;;;;;5114122;28;20047;-74
2022/02/15 02:58:25;;;;;;;0.60;0.60;;;19.80;38.30;;;;;;5095334;28;20059;-74
2022/02/15 03:00:51;;;;;;;0.70;0.70;;;19.90;38.30;;;;;;5095634;28;20055;-74
2022/02/15 03:03:21;;;;;;;0.80;0.80;;;19.80;38.30;;;;;;5096144;28;20090;-74
2022/02/15 03:05:50;;;;;;;0.73;0.63;;;19.80;38.30;;;;;;5095573;28;20061;-74
2022/02/15 03:08:20;;;;;;;0.70;0.70;;;19.80;38.30;;;;;;5112601;28;20195;-74
2022/02/15 03:10:50;;;;;;;0.98;0.88;;;19.80;38.30;;;;;;5095913;28;20056;-74
2022/02/15 03:13:27;;;;;;;0.70;0.70;;;19.80;38.30;;;;;;5095483;28;20040;-75
2022/02/15 03:15:53;;;;;;;0.70;0.70;;;19.80;38.30;;;;;;5095335;28;20088;-74
2022/02/15 03:18:22;;;;;;;0.65;0.65;;;19.80;38.30;;;;;;5110971;28;20492;-74
2022/02/15 03:20:50;;;;;;;0.82;0.77;;;19.80;38.30;;;;;;5112760;28;20465;-74
2022/02/15 03:23:16;;;;;;;1.25;0.90;;;19.80;38.30;;;;;;5095453;28;20070;-74
2022/02/15 03:25:42;;;;;;;0.63;0.63;;;19.80;38.30;;;;;;5094406;28;20407;-74
2022/02/15 03:28:08;;;;;;;0.77;0.60;;;19.80;38.30;;;;;;5093220;28;20052;-74
2022/02/15 03:30:34;;;;;;;0.93;0.80;;;19.80;38.30;;;;;;5094659;28;20066;-74
2022/02/15 03:32:59;;;;;;;0.70;0.70;;;19.80;38.30;;;;;;5093802;28;20044;-74
2022/02/15 03:35:26;;;;;;;0.70;0.70;;;19.80;38.80;;;;;;5093069;28;20047;-74
2022/02/15 03:38:00;;;;;;;1.05;0.60;;;19.90;38.30;;;;;;5095666;28;20139;-74
2022/02/15 03:43:04;;;;;;;0.75;0.70;;;19.90;38.30;;;;;;5093230;28;20044;-75
2022/02/15 03:43:17;;;;;;;0.85;0.70;;;19.90;38.20;;;;;;5095655;28;20074;-74
2022/02/15 03:45:43;;;;;;;0.70;0.70;;;20.00;38.20;;;;;;5094241;28;20451;-74
2022/02/15 03:48:12;;;;;;;1.30;0.77;;;20.00;38.10;;;;;;5094443;28;20047;-74
2022/02/15 03:50:40;;;;;;;0.85;0.80;;;20.00;38.00;;;;;;5094301;28;20058;-74
2022/02/15 03:53:06;;;;;;;0.70;0.70;;;20.10;38.00;;;;;;5093351;28;20197;-74
2022/02/15 03:55:34;;;;;;;1.42;0.80;;;20.10;38.00;;;;;;5094732;28;20438;-74
2022/02/15 03:57:59;;;;;;;0.75;0.75;;;20.10;37.90;;;;;;5093706;28;20059;-74
2022/02/15 04:00:25;;;;;;;1.42;0.80;;;20.10;37.90;;;;;;5092841;28;20176;-74
2022/02/15 04:03:00;;;;;;;0.70;0.70;;;20.10;37.90;;;;;;5112063;28;20039;-74
2022/02/15 04:05:26;;;;;;;0.65;0.60;;;20.10;37.90;;;;;;5092767;28;20101;-74
2022/02/15 04:07:52;;;;;;;0.80;0.70;;;20.10;37.80;;;;;;5094359;28;20051;-74
2022/02/15 04:10:19;;;;;;;0.63;0.63;;;20.20;37.80;;;;;;5094709;28;20383;-74
2022/02/15 04:12:46;;;;;;;0.80;0.80;;;20.20;37.80;;;;;;5094746;28;20043;-74
2022/02/15 04:15:13;;;;;;;0.68;0.68;;;20.30;37.80;;;;;;5111985;28;20055;-74
2022/02/15 04:17:45;;;;;;;1.30;0.77;;;20.30;37.70;;;;;;5111832;28;20083;-74
2022/02/15 04:20:12;;;;;;;0.73;0.60;;;20.30;37.70;;;;;;5078035;28;20048;-74
2022/02/15 04:22:38;;;;;;;1.10;0.80;;;20.30;37.60;;;;;;5094387;28;20403;-74
2022/02/15 04:25:05;;;;;;;0.80;0.80;;;20.30;37.60;;;;;;5094954;28;20051;-74
2022/02/15 04:27:31;;;;;;;1.20;0.88;;;20.30;37.60;;;;;;5077865;28;20143;-74
2022/02/15 04:29:56;;;;;;;0.60;0.60;;;20.40;37.60;;;;;;5094129;28;20489;-74
2022/02/15 04:32:22;;;;;;;0.50;0.50;;;20.40;37.60;;;;;;5111377;28;20399;-74
2022/02/15 04:34:48;;;;;;;0.63;0.60;;;20.40;37.60;;;;;;5112650;28;20510;-74
2022/02/15 04:37:14;;;;;;;1.42;0.60;;;20.40;37.50;;;;;;5094628;28;20275;-74
2022/02/15 04:39:41;;;;;;;0.63;0.63;;;20.40;37.50;;;;;;5079602;28;20410;-74
2022/02/15 04:42:10;;;;;;;0.60;0.60;;;20.40;37.50;;;;;;5114801;28;20937;-74
2022/02/15 04:44:37;;;;;;;0.95;0.88;;;20.40;37.50;;;;;;5097801;28;20059;-74
2022/02/15 04:47:03;;;;;;;1.15;0.80;;;20.50;37.50;;;;;;5098348;28;20067;-74
2022/02/15 04:49:30;;;;;;;0.80;0.80;;;20.50;37.50;;;;;;5114976;28;20062;-74
2022/02/15 04:51:56;;;;;;;0.60;0.60;;;20.50;37.40;;;;;;5097669;28;20403;-74
2022/02/15 04:54:22;;;;;;;0.82;0.63;;;20.50;37.40;;;;;;5114614;28;20554;-74
2022/02/15 04:56:50;;;;;;;0.60;0.60;;;20.50;37.40;;;;;;5113030;28;20048;-74
2022/02/15 04:59:16;;;;;;;0.80;0.80;;;20.50;37.40;;;;;;5097560;28;20058;-74
2022/02/15 05:01:42;;;;;;;1.08;0.77;;;20.50;37.40;;;;;;5097714;28;20059;-74
2022/02/15 05:06:54;;;;;;;0.60;0.60;;;20.60;37.30;;;;;;5097338;28;20487;-74
2022/02/15 05:09:21;;;;;;;0.75;0.70;;;20.60;37.30;;;;;;5096175;28;20385;-74
2022/02/15 05:11:46;;;;;;;0.60;0.60;;;20.60;37.30;;;;;;5115730;28;20055;-74
2022/02/15 05:14:12;;;;;;;0.70;0.70;;;20.60;37.30;;;;;;5096926;28;20047;-74
2022/02/15 05:16:42;;;;;;;1.27;0.60;;;20.60;37.30;;;;;;5097083;28;20055;-74
2022/02/15 05:19:20;;;;;;;0.65;0.60;;;20.60;37.30;;;;;;5095437;28;20090;-74
2022/02/15 05:21:54;;;;;;;0.65;0.57;;;20.60;37.20;;;;;;5097321;28;20091;-74
2022/02/15 05:24:20;;;;;;;1.33;0.70;;;20.60;37.30;;;;;;5095354;28;20051;-74
2022/02/15 05:26:55;;;;;;;0.82;0.75;;;20.60;37.30;;;;;;5097596;28;20055;-74
2022/02/15 05:29:31;;;;;;;0.75;0.75;;;20.60;37.20;;;;;;5097649;28;20069;-74
2022/02/15 05:32:12;;;;;;;0.70;0.70;;;20.60;37.20;;;;;;5097656;28;20052;-74
2022/02/15 05:34:42;;;;;;;0.70;0.70;;;20.60;37.20;;;;;;5096773;28;20084;-74
2022/02/15 05:37:09;;;;;;;0.70;0.57;;;20.60;37.20;;;;;;5097354;28;20480;-74
2022/02/15 05:39:39;;;;;;;0.60;0.60;;;20.60;37.20;;;;;;5114282;28;20109;-74
2022/02/15 05:42:07;;;;;;;0.68;0.60;;;20.60;37.20;;;;;;5096806;28;20134;-74
2022/02/15 05:44:33;;;;;;;0.80;0.70;;;20.70;37.20;;;;;;5113701;28;20059;-74
2022/02/15 05:47:02;;;;;;;0.80;0.70;;;20.60;37.20;;;;;;5080060;28;20056;-74
2022/02/15 05:49:28;;;;;;;0.60;0.60;;;20.60;37.20;;;;;;5096675;28;20047;-74
2022/02/15 05:52:05;;;;;;;0.50;0.50;;;20.60;37.20;;;;;;5096968;28;20450;-74
2022/02/15 05:54:32;;;;;;;0.50;0.50;;;20.60;37.20;;;;;;5096868;28;20407;-74
2022/02/15 05:57:05;;;;;;;0.75;0.73;;;20.60;37.20;;;;;;5096374;28;20142;-74
2022/02/15 05:59:36;;;;;;;;;;;20.60;37.20;;;;;;5097753;28;20134;-74
2022/02/15 06:02:08;;;;;;;0.50;0.50;;;20.60;37.20;;;;;;5096848;28;19915;-74
2022/02/15 06:04:48;;;;;;;0.80;0.80;;;20.60;37.20;;;;;;5113803;28;20089;-74
2022/02/15 06:07:15;;;;;;;0.93;0.70;;;20.60;37.20;;;;;;5095466;28;20079;-74
2022/02/15 06:09:41;;;;;;;0.52;0.52;;;20.60;37.20;;;;;;5114874;28;20522;-74
2022/02/15 06:12:08;;;;;;;0.70;0.70;;;20.60;37.20;;;;;;5097013;28;20040;-74
2022/02/15 06:14:40;;;;;;;0.60;0.60;;;20.60;37.20;;;;;;5114990;28;20059;-74
2022/02/15 06:17:10;;;;;;;0.80;0.80;;;20.60;37.20;;;;;;5113730;28;20051;-74
2022/02/15 06:19:36;;;;;;;0.52;0.52;;;20.60;37.20;;;;;;5096211;28;20048;-74
2022/02/15 06:22:03;;;;;;;0.77;0.63;;;20.60;37.20;;;;;;5096097;28;20499;-74
2022/02/15 06:24:35;;;;;;;1.10;0.63;;;20.60;37.20;;;;;;5095503;28;20456;-74
2022/02/15 06:27:11;;;;;;;0.60;0.60;;;20.60;37.20;;;;;;5096782;28;20044;-74
2022/02/15 06:29:54;;;;;;;0.60;0.60;;;20.60;37.20;;;;;;5114232;28;20104;-75
2022/02/15 06:32:30;;;;;;;1.67;0.80;;;20.60;37.20;;;;;;5096496;28;20040;-74
2022/02/15 06:34:55;;;;;;;0.70;0.70;;;20.60;37.20;;;;;;5114693;28;20127;-74
2022/02/15 06:37:22;;;;;;;1.55;0.60;;;20.60;37.20;;;;;;5096160;28;20044;-74
2022/02/15 06:39:51;;;;;;;0.93;0.60;;;20.60;37.20;;;;;;5095432;28;20047;-74
2022/02/15 06:42:21;;;;;;;0.80;0.80;;;20.60;37.20;;;;;;5094764;28;20048;-75
2022/02/15 06:44:46;;;;;;;0.50;0.50;;;20.60;37.20;;;;;;5096260;28;20052;-74
2022/02/15 06:47:18;;;;;;;1.02;0.93;;;20.60;37.20;;;;;;5095868;28;20491;-74
2022/02/15 06:49:44;;;;;;;1.02;0.47;;;20.60;37.20;;;;;;5095882;28;20055;-74
2022/02/15 06:52:31;;;;;;;0.60;0.60;;;20.60;37.20;;;;;;5095872;28;20032;-74
2022/02/15 06:55:10;;;;;;;1.08;0.85;;;20.60;37.20;;;;;;5080998;28;20403;-74
2022/02/15 06:57:40;;;;;;;0.70;0.70;;;20.70;37.20;;;;;;5095531;28;21500;-74
2022/02/15 07:00:06;;;;;;;1.15;0.75;;;20.60;37.20;;;;;;5095591;28;20095;-74
2022/02/15 07:02:35;;;;;;;0.75;0.73;;;20.70;37.20;;;;;;5094942;28;20248;-74
2022/02/15 07:05:01;;;;;;;0.70;0.70;;;20.70;37.20;;;;;;5078797;28;20113;-74
2022/02/15 07:07:26;;;;;;;0.80;0.70;;;20.70;37.20;;;;;;5095480;28;20048;-74
2022/02/15 07:09:54;;;;;;;0.85;0.77;;;20.70;37.20;;;;;;5095438;28;20444;-74
2022/02/15 07:12:35;;;;;;;0.70;0.70;;;20.70;37.20;;;;;;5096154;28;20050;-74
2022/02/15 07:15:13;;;;;;;0.63;0.63;;;20.70;37.20;;;;;;5096003;28;20100;-74
2022/02/15 07:17:50;;;;;;;1.73;0.95;;;20.70;37.20;;;;;;5095742;28;20050;-74
2022/02/15 07:20:21;;;;;;;0.50;0.50;;;20.70;37.20;;;;;;5093927;28;20075;-74
2022/02/15 07:23:13;;;;;;;0.60;0.60;;;20.70;37.20;;;;;;5112869;28;20051;-74
2022/02/15 07:25:57;;;;;;;1.52;0.80;;;20.70;37.20;;;;;;5113810;28;20051;-74
2022/02/15 07:28:39;;;;;;;0.80;0.80;;;20.70;37.30;;;;;;5092719;28;20186;-74
2022/02/15 07:31:06;;;;;;;0.95;0.75;;;20.70;37.20;;;;;;5112413;28;20055;-74
2022/02/15 07:33:31;;;;;;;1.05;0.70;;;20.70;37.20;;;;;;5095129;28;20047;-74
2022/02/15 07:35:57;;;;;;;0.98;0.70;;;20.70;37.20;;;;;;5095321;28;20047;-74
2022/02/15 07:38:24;;;;;;;0.60;0.60;;;20.70;37.20;;;;;;5094724;28;20070;-74
2022/02/15 07:40:51;;;;;;;0.80;0.70;;;20.70;37.20;;;;;;5113611;28;20086;-74
2022/02/15 07:43:17;;;;;;;2.08;0.73;;;20.60;37.30;;;;;;5111840;28;20154;-75
2022/02/15 07:45:44;;;;;;;1.95;0.70;;;20.70;37.40;;;;;;5113021;28;20142;-75
2022/02/15 07:48:09;;;;;;;0.73;0.70;;;20.70;37.70;;;;;;5113390;28;20051;-79
2022/02/15 07:50:36;;;;;;;3.35;0.70;;;20.70;37.60;;;;;;5094651;28;20078;-79
2022/02/15 07:53:02;;;;;;;3.85;0.95;;;20.70;37.50;;;;;;5076908;28;20052;-80
2022/02/15 07:55:27;;;;;;;2.72;0.90;;;20.70;37.40;;;;;;5112929;28;20456;-79
2022/02/15 07:57:53;;;;;;;2.47;1.08;;;20.70;37.40;;;;;;5113253;28;20058;-80
2022/02/15 08:00:20;;;;;;;1.77;0.70;;;20.80;37.50;;;;;;5093939;28;20505;-79
2022/02/15 08:02:51;;;;;;;1.80;0.90;;;20.80;37.30;;;;;;5113154;28;20058;-80
2022/02/15 08:05:19;;;;;;;2.45;0.98;;;20.90;37.30;;;;;;5112881;28;20056;-80
2022/02/15 08:07:53;;;;;;;0.98;0.82;;;20.90;37.30;;;;;;5094570;28;20051;-79
2022/02/15 08:10:19;;;;;;;2.38;1.05;;;20.90;37.30;;;;;;5094897;28;20388;-80
2022/02/15 08:12:55;;;;;;;1.38;0.80;;;20.90;37.20;;;;;;5113237;28;20043;-80
2022/02/15 08:15:23;;;;;;;2.50;0.90;;;20.90;37.20;;;;;;5116692;28;20055;-80
2022/02/15 08:17:49;;;;;;;2.08;1.13;;;20.90;37.20;;;;;;5096311;28;20060;-79
2022/02/15 08:20:14;;;;;;;5.18;1.08;;;21.00;37.20;;;;;;5115161;28;20047;-80
2022/02/15 08:22:40;;;;;;;4.25;0.95;;;20.90;37.40;;;;;;5098123;28;20077;-80
2022/02/15 08:25:07;;;;;;;3.33;1.13;;;20.90;37.00;;;;;;5096335;28;20052;-80
2022/02/15 08:27:33;;;;;;;5.18;1.17;;;20.90;37.10;;;;;;5098019;28;20399;-79
2022/02/15 08:29:58;;;;;;;4.25;1.30;;;20.90;37.10;;;;;;5116720;28;20055;-80
2022/02/15 08:32:24;;;;;;;2.85;1.50;;;21.00;37.20;;;;;;5116373;28;20154;-80
2022/02/15 08:34:50;;;;;;;5.25;1.00;;;21.00;37.00;;;;;;5116388;28;20047;-80
2022/02/15 08:37:16;;;;;;;3.00;1.10;;;21.00;37.00;;;;;;5116192;28;20134;-80
2022/02/15 08:39:41;;;;;;;2.28;0.98;;;21.00;37.00;;;;;;5097865;28;20091;-80
2022/02/15 08:42:07;;;;;;;2.53;0.85;;;21.00;37.00;;;;;;5095974;28;20075;-80
2022/02/15 08:44:34;;;;;;;2.83;1.15;;;20.90;36.90;;;;;;5097779;28;20056;-80
2022/02/15 08:47:05;;;;;;;3.05;1.27;;;20.90;37.00;;;;;;5116446;28;20121;-80
2022/02/15 08:49:40;;;;;;;2.75;1.27;;;20.90;37.00;;;;;;5114059;28;20055;-80
2022/02/15 08:52:06;;;;;;;3.30;1.33;;;20.90;37.00;;;;;;5095657;28;20047;-80
2022/02/15 08:54:32;;;;;;;2.47;1.05;;;20.90;37.10;;;;;;5097606;28;20066;-80
2022/02/15 08:56:58;;;;;;;3.30;1.45;;;20.90;37.00;;;;;;5115960;28;20533;-80
2022/02/15 08:59:23;;;;;;;2.30;1.10;;;20.90;37.00;;;;;;5115123;28;20055;-80
2022/02/15 09:01:49;;;;;;;3.25;1.55;;;20.90;37.00;;;;;;5080456;28;20047;-80
2022/02/15 09:04:18;;;;;;;1.98;1.08;;;20.90;36.90;;;;;;5097408;28;20056;-80
2022/02/15 09:06:44;;;;;;;4.95;1.50;;;20.90;36.90;;;;;;5115791;28;20541;-80
2022/02/15 09:09:10;;;;;;;6.75;1.52;;;20.90;36.90;;;;;;5097259;28;20051;-80
2022/02/15 09:11:36;;;;;;;3.83;1.48;;;20.90;37.00;;;;;;5097842;28;20487;-80
2022/02/15 09:14:02;;;;;;;2.05;1.10;;;20.90;37.00;;;;;;5115641;28;20503;-80
2022/02/15 09:16:28;;;;;;;1.75;0.90;;;20.90;37.00;;;;;;5112619;28;20044;-80
2022/02/15 09:18:54;;;;;;;3.67;1.35;;;20.90;37.00;;;;;;5115273;28;20063;-79
2022/02/15 09:21:19;;;;;;;4.93;1.20;;;20.90;37.10;;;;;;5097188;28;20056;-80
2022/02/15 09:23:45;;;;;;;3.03;0.98;;;20.90;37.00;;;;;;5115269;28;20536;-80
2022/02/15 09:26:11;;;;;;;3.53;1.23;;;20.90;37.10;;;;;;5096952;28;20086;-80
2022/02/15 09:28:36;;;;;;;1.85;1.00;;;20.90;37.10;;;;;;5096663;28;20064;-79
2022/02/15 09:31:02;;;;;;;3.83;1.05;;;20.90;37.00;;;;;;5115266;28;20059;-80
2022/02/15 09:33:29;;;;;;;2.90;1.38;;;20.90;37.00;;;;;;5080111;28;20047;-80
2022/02/15 09:35:56;;;;;;;2.40;1.35;;;20.90;37.00;;;;;;5097313;28;20139;-80
2022/02/15 09:38:23;;;;;;;2.65;1.40;;;20.90;37.00;;;;;;5115259;28;20388;-80
2022/02/15 09:40:51;;;;;;;1.30;1.00;;;20.90;37.00;;;;;;5114059;28;20054;-80
2022/02/15 09:43:17;;;;;;;2.92;1.30;;;20.90;36.90;;;;;;5097021;28;20055;-79
2022/02/15 09:45:46;;;;;;;4.53;1.15;;;20.90;36.90;;;;;;5115181;28;20066;-80
2022/02/15 09:48:13;;;;;;;2.72;1.25;;;20.90;36.90;;;;;;5096271;28;20472;-80
2022/02/15 09:50:41;;;;;;;6.75;1.95;;;21.00;37.00;;;;;;5115387;28;20051;-80
2022/02/15 09:53:07;;;;;;;4.50;1.45;;;21.00;36.90;;;;;;5095186;28;20483;-80
2022/02/15 09:55:33;;;;;;;1.38;0.77;;;21.00;36.90;;;;;;5115088;28;20181;-80
2022/02/15 09:57:59;;;;;;;4.78;1.60;;;21.00;36.90;;;;;;5114938;28;20078;-79
2022/02/15 10:00:25;;;;;;;2.65;1.13;;;21.00;36.90;;;;;;5095186;28;20488;-80
2022/02/15 10:02:51;;;;;;;3.30;1.33;;;21.00;36.90;;;;;;5096841;28;20128;-80
2022/02/15 10:05:20;;;;;;;1.60;1.10;;;21.00;36.80;;;;;;5096277;28;20051;-80
2022/02/15 10:07:59;;;;;;;2.35;1.02;;;21.00;36.80;;;;;;5114590;28;20056;-80
2022/02/15 10:10:35;;;;;;;2.72;1.35;;;21.00;36.80;;;;;;5095047;28;20056;-80
2022/02/15 10:13:06;;;;;;;2.60;1.23;;;21.00;36.80;;;;;;5095324;28;20573;-80
2022/02/15 10:15:37;;;;;;;5.40;1.73;;;21.00;36.80;;;;;;5114751;28;20117;-80
2022/02/15 10:18:05;;;;;;;1.35;0.90;;;21.00;36.70;;;;;;5114540;28;20054;-80
2022/02/15 10:20:30;;;;;;;2.63;1.15;;;21.00;36.70;;;;;;5095990;28;20052;-80
2022/02/15 10:23:29;;;;;;;3.78;1.40;;;21.00;36.70;;;;;;5112820;28;20518;-79
2022/02/15 10:25:56;;;;;;;3.13;1.20;;;21.00;36.70;;;;;;5114509;28;20495;-80
2022/02/15 10:28:29;;;;;;;4.78;1.75;;;21.00;36.60;;;;;;5114390;28;20051;-80
2022/02/15 10:30:57;;;;;;;3.35;1.05;;;21.00;36.60;;;;;;5112509;28;20062;-80
2022/02/15 10:33:35;;;;;;;3.50;1.05;;;21.10;36.70;;;;;;5114502;28;20043;-80
2022/02/15 10:36:06;;;;;;;2.33;1.30;;;21.10;36.70;;;;;;5095526;28;20052;-80
2022/02/15 10:38:35;;;;;;;4.78;1.27;;;21.10;36.60;;;;;;5096033;28;20134;-79
2022/02/15 10:41:10;;;;;;;3.80;1.20;;;21.20;36.50;;;;;;5113683;28;20054;-80
2022/02/15 10:43:56;;;;;;;3.95;1.35;;;21.20;36.70;;;;;;5114196;28;20048;-80
2022/02/15 10:46:24;;;;;;;5.00;1.23;;;21.20;36.70;;;;;;5113140;28;20077;-80
2022/02/15 10:48:54;;;;;;;3.20;1.38;;;21.20;36.60;;;;;;5075144;28;20036;-80
2022/02/15 10:51:21;;;;;;;5.03;1.10;;;21.20;36.60;;;;;;5095811;28;20453;-80
2022/02/15 10:53:47;;;;;;;3.78;1.30;;;21.20;36.70;;;;;;5114141;28;20100;-80
2022/02/15 10:56:14;;;;;;;4.15;1.65;;;21.20;36.70;;;;;;5114376;28;20059;-80
2022/02/15 10:58:40;;;;;;;4.45;1.40;;;21.10;36.70;;;;;;5113739;28;20100;-80
2022/02/15 11:01:08;;;;;;;4.05;1.40;;;21.10;36.70;;;;;;5113852;28;20055;-82
2022/02/15 11:03:35;;;;;;;5.50;1.17;;;21.10;36.90;;;;;;5095835;28;20051;-83
2022/02/15 11:06:02;;;;;;;6.47;1.35;;;21.10;37.70;;;;;;5095818;28;20506;-83
2022/02/15 11:08:30;;;;;;;6.57;1.30;;;21.10;37.30;;;;;;5113996;28;20103;-83
2022/02/15 11:11:10;;;;;;;3.92;1.48;;;21.00;37.30;;;;;;5113978;28;20197;-83
2022/02/15 11:13:38;;;;;;;6.50;1.45;;;21.00;37.40;;;;;;5078488;28;20052;-81
2022/02/15 11:16:14;;;;;;;2.55;1.30;;;21.00;37.50;;;;;;5094773;28;20051;-82
2022/02/15 11:18:41;;;;;;;3.92;1.20;;;21.10;37.50;;;;;;5095231;28;20047;-83
2022/02/15 11:21:19;;;;;;;7.85;1.52;;;21.10;37.50;;;;;;5112231;28;20089;-79
2022/02/15 11:23:54;;;;;;;3.90;1.00;;;21.10;37.60;;;;;;5091848;28;20044;-79
2022/02/15 11:26:22;;;;;;;4.40;1.65;;;21.00;37.60;;;;;;5093313;28;20064;-79
2022/02/15 11:28:49;;;;;;;5.13;1.30;;;21.00;37.50;;;;;;5110822;28;20054;-79
2022/02/15 11:31:29;;;;;;;4.25;1.30;;;21.00;37.40;;;;;;5095314;28;20047;-79
2022/02/15 11:33:56;;;;;;;2.58;1.25;;;21.00;37.40;;;;;;5094948;28;20392;-79
2022/02/15 11:36:26;;;;;;;4.05;1.25;;;21.10;37.30;;;;;;5113412;28;20526;-79
2022/02/15 11:39:04;;;;;;;2.35;1.42;;;21.10;37.20;;;;;;5077630;28;20513;-79
2022/02/15 11:41:42;;;;;;;5.80;1.52;;;21.10;37.20;;;;;;5095550;28;20579;-79
2022/02/15 11:44:08;;;;;;;5.78;1.30;;;21.10;37.20;;;;;;5094705;28;20056;-79
2022/02/15 11:46:37;;;;;;;4.30;1.63;;;21.10;37.10;;;;;;5094963;28;20434;-79
2022/02/15 11:49:12;;;;;;;2.70;1.25;;;21.00;37.10;;;;;;5112947;28;20475;-80
2022/02/15 11:51:39;;;;;;;2.22;1.10;;;21.10;37.10;;;;;;5092613;28;20533;-79
2022/02/15 11:54:10;;;;;;;3.00;1.30;;;21.10;37.10;;;;;;5113073;28;20059;-79
2022/02/15 11:56:37;;;;;;;2.58;1.60;;;21.10;37.10;;;;;;5093703;28;20056;-79
2022/02/15 11:59:13;;;;;;;2.92;1.35;;;21.10;37.10;;;;;;5092816;28;20052;-80
2022/02/15 12:01:42;;;;;;;3.58;1.60;;;21.10;37.10;;;;;;5094866;28;20506;-79
2022/02/15 12:04:11;;;;;;;3.88;1.40;;;21.10;37.00;;;;;;5113205;28;20047;-79
2022/02/15 12:06:42;;;;;;;2.90;1.35;;;21.10;37.00;;;;;;5113097;28;20138;-79
2022/02/15 12:09:08;;;;;;;6.85;2.33;;;21.10;37.00;;;;;;5112882;28;20052;-79
2022/02/15 12:11:40;;;;;;;3.72;1.73;;;21.10;37.00;;;;;;5094640;28;20079;-79
2022/02/15 12:14:21;;;;;;;3.97;1.30;;;21.10;37.00;;;;;;5113124;28;20082;-79
2022/02/15 12:16:59;;;;;;;2.75;1.45;;;21.20;37.00;;;;;;5094534;28;20051;-79
2022/02/15 12:19:33;;;;;;;3.53;1.20;;;21.10;37.00;;;;;;5078064;28;20047;-79
2022/02/15 12:22:00;;;;;;;4.80;1.42;;;21.10;37.00;;;;;;5094744;28;20167;-79
2022/02/15 12:24:28;;;;;;;1.92;1.40;;;21.10;37.00;;;;;;5093289;28;20075;-79
2022/02/15 12:26:56;;;;;;;1.35;1.20;;;21.10;37.00;;;;;;5077566;28;20051;-79
2022/02/15 12:29:22;;;;;;;4.03;1.27;;;21.10;37.10;;;;;;5109596;28;20052;-79
2022/02/15 12:31:59;;;;;;;2.35;1.30;;;21.10;37.10;;;;;;5094337;28;20503;-79
2022/02/15 12:34:25;;;;;;;4.95;1.27;;;21.10;37.00;;;;;;5112447;28;20529;-79
2022/02/15 12:36:51;;;;;;;2.33;1.40;;;21.10;37.00;;;;;;5094260;28;20086;-79
2022/02/15 12:39:18;;;;;;;2.97;1.60;;;21.10;37.00;;;;;;5112682;28;20051;-79
2022/02/15 12:41:47;;;;;;;4.18;1.42;;;21.10;37.00;;;;;;5112486;28;20482;-79
2022/02/15 12:44:13;;;;;;;4.38;1.50;;;21.10;37.00;;;;;;5112616;28;20052;-79
2022/02/15 12:46:39;;;;;;;4.43;1.92;;;21.00;37.00;;;;;;5112553;28;20056;-79
2022/02/15 12:49:07;;;;;;;2.90;1.50;;;21.10;37.00;;;;;;5112385;28;20089;-79
2022/02/15 12:51:36;;;;;;;3.35;1.48;;;21.00;36.90;;;;;;5094136;28;20507;-80
2022/02/15 12:54:05;;;;;;;3.13;1.25;;;21.10;37.20;;;;;;5094198;28;20159;-79
2022/02/15 12:56:32;;;;;;;3.25;1.42;;;21.10;37.00;;;;;;5112683;28;20509;-79
2022/02/15 12:59:02;;;;;;;5.00;1.70;;;21.10;36.90;;;;;;5112395;28;20138;-79